Terminal Aerodrome Forecast
Issued by NWS

Home | Current Version | Previous Version | Text Only | Print | Product List | Glossary On
Versions: 1 2 3 4 5 6 7 8 9 10 11 12 13 14 15
000
FTUS45 KGGW 212321
TAFOLF
TAF
KOLF 212321Z 2200/2224 27012G20KT P6SM SKC
     FM220200 27007KT P6SM SKC
     FM220800 00000KT P6SM FEW220
     FM221400 23006KT P6SM OVC080 WS020/25035KT
     FM221600 23012KT P6SM OVC060
     FM222200 27026G35KT P6SM VCSH BKN070=

USA.gov is the U.S. government's official web portal to all federal, state and local government web resources and services.